sensor_id;sensor_type;location;lat;lon;timestamp;temperature;humidity
31379;DHT22;61664;48.112;11.662;2023-02-01T00:01:55;7.30;79.40
31379;DHT22;61664;48.112;11.662;2023-02-01T00:04:22;7.30;79.20
31379;DHT22;61664;48.112;11.662;2023-02-01T00:06:49;7.20;79.20
31379;DHT22;61664;48.112;11.662;2023-02-01T00:09:18;7.30;79.30
31379;DHT22;61664;48.112;11.662;2023-02-01T00:11:45;7.30;79.30
31379;DHT22;61664;48.112;11.662;2023-02-01T00:14:12;7.30;79.30
31379;DHT22;61664;48.112;11.662;2023-02-01T00:16:57;7.30;79.30
31379;DHT22;61664;48.112;11.662;2023-02-01T00:19:24;7.30;78.50
31379;DHT22;61664;48.112;11.662;2023-02-01T00:21:51;7.30;79.30
31379;DHT22;61664;48.112;11.662;2023-02-01T00:24:18;7.30;79.30
31379;DHT22;61664;48.112;11.662;2023-02-01T00:26:45;7.30;79.20
31379;DHT22;61664;48.112;11.662;2023-02-01T00:29:18;7.30;79.20
31379;DHT22;61664;48.112;11.662;2023-02-01T00:31:46;7.40;78.90
31379;DHT22;61664;48.112;11.662;2023-02-01T00:34:18;7.40;79.20
31379;DHT22;61664;48.112;11.662;2023-02-01T00:36:46;7.40;79.10
31379;DHT22;61664;48.112;11.662;2023-02-01T00:39:13;7.50;79.20
31379;DHT22;61664;48.112;11.662;2023-02-01T00:41:40;7.40;79.10
31379;DHT22;61664;48.112;11.662;2023-02-01T00:44:07;7.40;79.20
31379;DHT22;61664;48.112;11.662;2023-02-01T00:46:34;7.40;79.00
31379;DHT22;61664;48.112;11.662;2023-02-01T00:49:02;7.40;78.80
31379;DHT22;61664;48.112;11.662;2023-02-01T00:51:29;7.40;78.80
31379;DHT22;61664;48.112;11.662;2023-02-01T00:53:57;7.40;78.70
31379;DHT22;61664;48.112;11.662;2023-02-01T00:56:24;7.40;78.50
31379;DHT22;61664;48.112;11.662;2023-02-01T00:58:51;7.40;77.90
31379;DHT22;61664;48.112;11.662;2023-02-01T01:01:26;7.40;77.50
31379;DHT22;61664;48.112;11.662;2023-02-01T01:03:56;7.30;75.70
31379;DHT22;61664;48.112;11.662;2023-02-01T01:06:28;7.20;76.40
31379;DHT22;61664;48.112;11.662;2023-02-01T01:08:59;7.10;76.30
31379;DHT22;61664;48.112;11.662;2023-02-01T01:11:30;7.00;76.60
31379;DHT22;61664;48.112;11.662;2023-02-01T01:14:02;6.90;77.20
31379;DHT22;61664;48.112;11.662;2023-02-01T01:16:46;6.80;78.00
31379;DHT22;61664;48.112;11.662;2023-02-01T01:19:13;6.60;77.00
31379;DHT22;61664;48.112;11.662;2023-02-01T01:21:40;6.60;79.20
31379;DHT22;61664;48.112;11.662;2023-02-01T01:24:06;6.40;79.50
31379;DHT22;61664;48.112;11.662;2023-02-01T01:26:33;6.30;79.90
31379;DHT22;61664;48.112;11.662;2023-02-01T01:29:00;6.30;80.30
31379;DHT22;61664;48.112;11.662;2023-02-01T01:31:28;6.20;80.80
31379;DHT22;61664;48.112;11.662;2023-02-01T01:33:58;6.20;81.20
31379;DHT22;61664;48.112;11.662;2023-02-01T01:36:27;6.10;81.20
31379;DHT22;61664;48.112;11.662;2023-02-01T01:38:57;6.00;81.50
31379;DHT22;61664;48.112;11.662;2023-02-01T01:41:32;6.10;82.00
31379;DHT22;61664;48.112;11.662;2023-02-01T01:48:21;6.00;80.50
31379;DHT22;61664;48.112;11.662;2023-02-01T01:51:23;6.00;82.40
31379;DHT22;61664;48.112;11.662;2023-02-01T01:53:49;6.00;82.60
31379;DHT22;61664;48.112;11.662;2023-02-01T01:56:26;5.90;82.80
31379;DHT22;61664;48.112;11.662;2023-02-01T01:58:56;6.00;83.00
31379;DHT22;61664;48.112;11.662;2023-02-01T02:01:23;5.90;83.10
31379;DHT22;61664;48.112;11.662;2023-02-01T02:03:51;5.90;83.20
31379;DHT22;61664;48.112;11.662;2023-02-01T02:09:14;5.90;83.10
31379;DHT22;61664;48.112;11.662;2023-02-01T02:11:42;5.90;83.30
31379;DHT22;61664;48.112;11.662;2023-02-01T02:14:36;5.90;83.40
31379;DHT22;61664;48.112;11.662;2023-02-01T02:18:19;5.90;81.40
31379;DHT22;61664;48.112;11.662;2023-02-01T02:21:52;5.90;81.80
31379;DHT22;61664;48.112;11.662;2023-02-01T02:33:41;5.80;82.70
31379;DHT22;61664;48.112;11.662;2023-02-01T02:39:05;5.80;83.70
31379;DHT22;61664;48.112;11.662;2023-02-01T02:41:57;5.90;82.20
31379;DHT22;61664;48.112;11.662;2023-02-01T02:45:02;5.90;83.40
31379;DHT22;61664;48.112;11.662;2023-02-01T02:48:01;5.90;84.00
31379;DHT22;61664;48.112;11.662;2023-02-01T02:50:37;5.90;84.00
31379;DHT22;61664;48.112;11.662;2023-02-01T02:56:24;5.90;84.20
31379;DHT22;61664;48.112;11.662;2023-02-01T02:59:14;6.00;84.60
31379;DHT22;61664;48.112;11.662;2023-02-01T03:02:02;6.00;84.60
31379;DHT22;61664;48.112;11.662;2023-02-01T03:04:54;6.00;84.80
31379;DHT22;61664;48.112;11.662;2023-02-01T03:13:06;6.10;84.20
31379;DHT22;61664;48.112;11.662;2023-02-01T03:21:57;6.10;82.80
31379;DHT22;61664;48.112;11.662;2023-02-01T03:24:32;6.10;83.70
31379;DHT22;61664;48.112;11.662;2023-02-01T03:27:33;6.10;84.60
31379;DHT22;61664;48.112;11.662;2023-02-01T03:30:25;6.20;84.20
31379;DHT22;61664;48.112;11.662;2023-02-01T03:32:56;6.20;83.30
31379;DHT22;61664;48.112;11.662;2023-02-01T03:41:44;6.30;84.10
31379;DHT22;61664;48.112;11.662;2023-02-01T03:44:20;6.30;84.90
31379;DHT22;61664;48.112;11.662;2023-02-01T03:46:55;6.40;84.60
31379;DHT22;61664;48.112;11.662;2023-02-01T03:49:47;6.40;84.20
31379;DHT22;61664;48.112;11.662;2023-02-01T03:52:39;6.30;82.60
31379;DHT22;61664;48.112;11.662;2023-02-01T03:55:16;6.30;83.40
31379;DHT22;61664;48.112;11.662;2023-02-01T03:58:01;6.30;84.60
31379;DHT22;61664;48.112;11.662;2023-02-01T04:00:55;6.30;84.00
31379;DHT22;61664;48.112;11.662;2023-02-01T04:03:25;6.40;83.80
31379;DHT22;61664;48.112;11.662;2023-02-01T04:05:54;6.40;84.70
31379;DHT22;61664;48.112;11.662;2023-02-01T04:08:22;6.30;84.70
31379;DHT22;61664;48.112;11.662;2023-02-01T04:10:49;6.40;84.70
31379;DHT22;61664;48.112;11.662;2023-02-01T04:13:16;6.40;84.60
31379;DHT22;61664;48.112;11.662;2023-02-01T04:15:43;6.40;84.80
31379;DHT22;61664;48.112;11.662;2023-02-01T04:18:12;6.50;84.80
31379;DHT22;61664;48.112;11.662;2023-02-01T04:20:38;6.60;84.70
31379;DHT22;61664;48.112;11.662;2023-02-01T04:23:05;6.50;84.60
31379;DHT22;61664;48.112;11.662;2023-02-01T04:25:32;6.50;84.60
31379;DHT22;61664;48.112;11.662;2023-02-01T04:27:59;6.50;84.80
31379;DHT22;61664;48.112;11.662;2023-02-01T04:30:26;6.50;84.80
31379;DHT22;61664;48.112;11.662;2023-02-01T04:32:53;6.60;84.90
31379;DHT22;61664;48.112;11.662;2023-02-01T04:35:20;6.60;84.80
31379;DHT22;61664;48.112;11.662;2023-02-01T04:37:46;6.60;84.80
31379;DHT22;61664;48.112;11.662;2023-02-01T04:40:33;6.60;84.90
31379;DHT22;61664;48.112;11.662;2023-02-01T04:43:25;6.60;83.20
31379;DHT22;61664;48.112;11.662;2023-02-01T04:46:02;6.70;82.00
31379;DHT22;61664;48.112;11.662;2023-02-01T04:49:28;6.60;84.50
31379;DHT22;61664;48.112;11.662;2023-02-01T04:51:55;6.70;84.50
31379;DHT22;61664;48.112;11.662;2023-02-01T04:54:21;6.60;84.50
31379;DHT22;61664;48.112;11.662;2023-02-01T04:56:48;6.60;84.40
31379;DHT22;61664;48.112;11.662;2023-02-01T04:59:15;6.60;84.50
31379;DHT22;61664;48.112;11.662;2023-02-01T05:01:42;6.70;84.40
31379;DHT22;61664;48.112;11.662;2023-02-01T05:04:09;6.70;84.40
31379;DHT22;61664;48.112;11.662;2023-02-01T05:06:36;6.70;84.40
31379;DHT22;61664;48.112;11.662;2023-02-01T05:09:02;6.70;84.20
31379;DHT22;61664;48.112;11.662;2023-02-01T05:11:29;6.70;84.40
31379;DHT22;61664;48.112;11.662;2023-02-01T05:14:15;6.70;84.20
31379;DHT22;61664;48.112;11.662;2023-02-01T05:16:41;6.70;84.50
31379;DHT22;61664;48.112;11.662;2023-02-01T05:19:08;6.70;84.50
31379;DHT22;61664;48.112;11.662;2023-02-01T05:21:35;6.70;84.40
31379;DHT22;61664;48.112;11.662;2023-02-01T05:24:02;6.70;84.30
31379;DHT22;61664;48.112;11.662;2023-02-01T05:26:48;6.70;84.40
31379;DHT22;61664;48.112;11.662;2023-02-01T05:29:16;6.70;84.30
31379;DHT22;61664;48.112;11.662;2023-02-01T05:31:45;6.80;84.30
31379;DHT22;61664;48.112;11.662;2023-02-01T05:34:12;6.70;84.30
31379;DHT22;61664;48.112;11.662;2023-02-01T05:36:40;6.70;84.40
31379;DHT22;61664;48.112;11.662;2023-02-01T05:39:07;6.70;84.40
31379;DHT22;61664;48.112;11.662;2023-02-01T05:41:34;6.70;84.40
31379;DHT22;61664;48.112;11.662;2023-02-01T05:44:01;6.70;84.30
31379;DHT22;61664;48.112;11.662;2023-02-01T05:46:29;6.70;84.30
31379;DHT22;61664;48.112;11.662;2023-02-01T05:48:56;6.70;84.40
31379;DHT22;61664;48.112;11.662;2023-02-01T05:51:23;6.70;84.40
31379;DHT22;61664;48.112;11.662;2023-02-01T05:53:49;6.70;84.40
31379;DHT22;61664;48.112;11.662;2023-02-01T05:56:16;6.70;84.40
31379;DHT22;61664;48.112;11.662;2023-02-01T05:58:43;6.70;84.30
31379;DHT22;61664;48.112;11.662;2023-02-01T06:01:10;6.70;84.50
31379;DHT22;61664;48.112;11.662;2023-02-01T06:03:37;6.80;84.50
31379;DHT22;61664;48.112;11.662;2023-02-01T06:06:05;6.70;84.50
31379;DHT22;61664;48.112;11.662;2023-02-01T06:08:32;6.70;84.40
31379;DHT22;61664;48.112;11.662;2023-02-01T06:11:01;6.70;84.50
31379;DHT22;61664;48.112;11.662;2023-02-01T06:13:31;6.70;84.90
31379;DHT22;61664;48.112;11.662;2023-02-01T06:16:01;6.90;82.20
31379;DHT22;61664;48.112;11.662;2023-02-01T06:18:29;6.80;85.60
31379;DHT22;61664;48.112;11.662;2023-02-01T06:20:58;6.90;86.20
31379;DHT22;61664;48.112;11.662;2023-02-01T06:23:28;6.90;86.10
31379;DHT22;61664;48.112;11.662;2023-02-01T06:26:04;7.00;86.20
31379;DHT22;61664;48.112;11.662;2023-02-01T06:28:33;7.00;84.80
31379;DHT22;61664;48.112;11.662;2023-02-01T06:31:05;7.20;86.20
31379;DHT22;61664;48.112;11.662;2023-02-01T06:33:34;7.20;85.40
31379;DHT22;61664;48.112;11.662;2023-02-01T06:36:03;7.20;85.20
31379;DHT22;61664;48.112;11.662;2023-02-01T06:38:33;7.20;84.60
31379;DHT22;61664;48.112;11.662;2023-02-01T06:41:01;7.20;84.10
31379;DHT22;61664;48.112;11.662;2023-02-01T06:43:30;7.20;83.80
31379;DHT22;61664;48.112;11.662;2023-02-01T06:46:00;7.20;83.70
31379;DHT22;61664;48.112;11.662;2023-02-01T06:48:28;7.10;83.60
31379;DHT22;61664;48.112;11.662;2023-02-01T06:50:56;7.10;83.60
31379;DHT22;61664;48.112;11.662;2023-02-01T06:53:23;7.10;83.80
31379;DHT22;61664;48.112;11.662;2023-02-01T06:56:01;7.10;83.80
31379;DHT22;61664;48.112;11.662;2023-02-01T06:58:31;7.00;82.10
31379;DHT22;61664;48.112;11.662;2023-02-01T07:01:07;7.00;83.90
31379;DHT22;61664;48.112;11.662;2023-02-01T07:03:35;7.00;83.20
31379;DHT22;61664;48.112;11.662;2023-02-01T07:06:02;7.00;84.20
31379;DHT22;61664;48.112;11.662;2023-02-01T07:08:32;7.00;84.40
31379;DHT22;61664;48.112;11.662;2023-02-01T07:11:08;7.00;84.30
31379;DHT22;61664;48.112;11.662;2023-02-01T07:13:37;7.00;83.60
31379;DHT22;61664;48.112;11.662;2023-02-01T07:16:07;7.00;84.50
31379;DHT22;61664;48.112;11.662;2023-02-01T07:18:37;7.00;84.40
31379;DHT22;61664;48.112;11.662;2023-02-01T07:21:04;7.00;84.50
31379;DHT22;61664;48.112;11.662;2023-02-01T07:23:31;7.00;84.70
31379;DHT22;61664;48.112;11.662;2023-02-01T07:26:00;7.10;84.70
31379;DHT22;61664;48.112;11.662;2023-02-01T07:28:31;7.00;84.30
31379;DHT22;61664;48.112;11.662;2023-02-01T07:31:07;7.00;84.50
31379;DHT22;61664;48.112;11.662;2023-02-01T07:33:36;7.10;84.00
31379;DHT22;61664;48.112;11.662;2023-02-01T07:36:05;7.10;84.60
31379;DHT22;61664;48.112;11.662;2023-02-01T07:38:33;7.10;84.40
31379;DHT22;61664;48.112;11.662;2023-02-01T07:41:02;7.10;84.70
31379;DHT22;61664;48.112;11.662;2023-02-01T07:43:31;7.10;84.70
31379;DHT22;61664;48.112;11.662;2023-02-01T07:46:00;7.10;84.70
31379;DHT22;61664;48.112;11.662;2023-02-01T07:48:28;7.10;84.80
31379;DHT22;61664;48.112;11.662;2023-02-01T07:50:59;7.10;84.80
31379;DHT22;61664;48.112;11.662;2023-02-01T07:53:28;7.10;84.10
31379;DHT22;61664;48.112;11.662;2023-02-01T07:55:56;7.20;84.70
31379;DHT22;61664;48.112;11.662;2023-02-01T07:58:24;7.20;84.70
31379;DHT22;61664;48.112;11.662;2023-02-01T08:00:52;7.20;84.70
31379;DHT22;61664;48.112;11.662;2023-02-01T08:03:38;7.20;84.60
31379;DHT22;61664;48.112;11.662;2023-02-01T08:06:05;7.20;84.80
31379;DHT22;61664;48.112;11.662;2023-02-01T08:08:33;7.30;84.80
31379;DHT22;61664;48.112;11.662;2023-02-01T08:11:02;7.30;84.80
31379;DHT22;61664;48.112;11.662;2023-02-01T08:13:32;7.30;84.40
31379;DHT22;61664;48.112;11.662;2023-02-01T08:16:04;7.30;84.80
31379;DHT22;61664;48.112;11.662;2023-02-01T08:18:33;7.40;84.80
31379;DHT22;61664;48.112;11.662;2023-02-01T08:21:13;7.40;84.90
31379;DHT22;61664;48.112;11.662;2023-02-01T08:23:50;7.40;83.80
31379;DHT22;61664;48.112;11.662;2023-02-01T08:26:20;7.50;85.10
31379;DHT22;61664;48.112;11.662;2023-02-01T08:28:53;7.50;84.80
31379;DHT22;61664;48.112;11.662;2023-02-01T08:31:27;7.50;84.40
31379;DHT22;61664;48.112;11.662;2023-02-01T08:33:57;7.50;84.70
31379;DHT22;61664;48.112;11.662;2023-02-01T08:36:28;7.60;84.80
31379;DHT22;61664;48.112;11.662;2023-02-01T08:38:57;7.60;84.60
31379;DHT22;61664;48.112;11.662;2023-02-01T08:41:26;7.60;85.00
31379;DHT22;61664;48.112;11.662;2023-02-01T08:43:56;7.60;84.60
31379;DHT22;61664;48.112;11.662;2023-02-01T08:46:24;7.60;84.90
31379;DHT22;61664;48.112;11.662;2023-02-01T08:48:51;7.60;84.90
31379;DHT22;61664;48.112;11.662;2023-02-01T08:51:20;7.70;85.00
31379;DHT22;61664;48.112;11.662;2023-02-01T08:53:49;7.70;84.90
31379;DHT22;61664;48.112;11.662;2023-02-01T08:56:18;7.90;85.20
31379;DHT22;61664;48.112;11.662;2023-02-01T08:58:45;7.80;85.10
31379;DHT22;61664;48.112;11.662;2023-02-01T09:01:14;7.80;85.30
31379;DHT22;61664;48.112;11.662;2023-02-01T09:03:43;7.90;85.00
31379;DHT22;61664;48.112;11.662;2023-02-01T09:06:13;7.90;85.20
31379;DHT22;61664;48.112;11.662;2023-02-01T09:08:42;8.00;85.10
31379;DHT22;61664;48.112;11.662;2023-02-01T09:11:17;8.10;84.80
31379;DHT22;61664;48.112;11.662;2023-02-01T09:13:48;8.10;84.20
31379;DHT22;61664;48.112;11.662;2023-02-01T09:16:15;8.20;84.70
31379;DHT22;61664;48.112;11.662;2023-02-01T09:18:42;8.10;84.70
31379;DHT22;61664;48.112;11.662;2023-02-01T09:21:27;8.20;84.70
31379;DHT22;61664;48.112;11.662;2023-02-01T09:23:54;8.30;84.60
31379;DHT22;61664;48.112;11.662;2023-02-01T09:26:21;8.20;84.50
31379;DHT22;61664;48.112;11.662;2023-02-01T09:28:58;8.30;84.50
31379;DHT22;61664;48.112;11.662;2023-02-01T09:31:25;8.30;84.50
31379;DHT22;61664;48.112;11.662;2023-02-01T09:33:53;8.30;84.70
31379;DHT22;61664;48.112;11.662;2023-02-01T09:36:19;8.40;85.00
31379;DHT22;61664;48.112;11.662;2023-02-01T09:38:46;8.40;84.80
31379;DHT22;61664;48.112;11.662;2023-02-01T09:44:13;8.50;84.90
31379;DHT22;61664;48.112;11.662;2023-02-01T09:46:55;8.50;83.70
31379;DHT22;61664;48.112;11.662;2023-02-01T09:49:30;8.60;84.50
31379;DHT22;61664;48.112;11.662;2023-02-01T09:52:02;8.60;83.30
31379;DHT22;61664;48.112;11.662;2023-02-01T09:54:49;8.70;83.70
31379;DHT22;61664;48.112;11.662;2023-02-01T09:57:27;8.70;83.30
31379;DHT22;61664;48.112;11.662;2023-02-01T10:00:11;8.80;84.00
31379;DHT22;61664;48.112;11.662;2023-02-01T10:02:42;8.80;83.30
31379;DHT22;61664;48.112;11.662;2023-02-01T10:05:16;8.90;83.90
31379;DHT22;61664;48.112;11.662;2023-02-01T10:11:04;8.90;80.10
31379;DHT22;61664;48.112;11.662;2023-02-01T10:14:02;8.90;81.50
31379;DHT22;61664;48.112;11.662;2023-02-01T10:16:56;8.90;81.40
31379;DHT22;61664;48.112;11.662;2023-02-01T10:20:18;8.90;81.60
31379;DHT22;61664;48.112;11.662;2023-02-01T10:23:18;8.90;79.40
31379;DHT22;61664;48.112;11.662;2023-02-01T10:26:21;8.90;81.40
31379;DHT22;61664;48.112;11.662;2023-02-01T10:28:57;8.80;82.20
31379;DHT22;61664;48.112;11.662;2023-02-01T10:31:35;8.80;82.20
31379;DHT22;61664;48.112;11.662;2023-02-01T10:34:22;8.80;81.50
31379;DHT22;61664;48.112;11.662;2023-02-01T10:36:58;8.80;80.20
31379;DHT22;61664;48.112;11.662;2023-02-01T10:39:27;8.90;82.20
31379;DHT22;61664;48.112;11.662;2023-02-01T10:41:55;8.80;83.10
31379;DHT22;61664;48.112;11.662;2023-02-01T10:44:28;8.80;83.00
31379;DHT22;61664;48.112;11.662;2023-02-01T10:46:58;8.80;81.50
31379;DHT22;61664;48.112;11.662;2023-02-01T10:49:43;8.80;83.10
31379;DHT22;61664;48.112;11.662;2023-02-01T10:52:54;8.80;80.20
31379;DHT22;61664;48.112;11.662;2023-02-01T10:55:34;8.90;79.70
31379;DHT22;61664;48.112;11.662;2023-02-01T10:58:15;8.90;81.90
31379;DHT22;61664;48.112;11.662;2023-02-01T11:00:52;8.90;79.90
31379;DHT22;61664;48.112;11.662;2023-02-01T11:06:28;8.90;79.30
31379;DHT22;61664;48.112;11.662;2023-02-01T11:09:01;8.90;77.50
31379;DHT22;61664;48.112;11.662;2023-02-01T11:16:57;8.90;81.70
31379;DHT22;61664;48.112;11.662;2023-02-01T11:19:27;8.80;80.10
31379;DHT22;61664;48.112;11.662;2023-02-01T11:21:58;8.90;81.00
31379;DHT22;61664;48.112;11.662;2023-02-01T11:24:35;8.90;81.00
31379;DHT22;61664;48.112;11.662;2023-02-01T11:27:12;8.90;79.70
31379;DHT22;61664;48.112;11.662;2023-02-01T11:29:57;8.80;81.40
31379;DHT22;61664;48.112;11.662;2023-02-01T11:32:28;8.90;81.00
31379;DHT22;61664;48.112;11.662;2023-02-01T11:35:06;8.80;81.60
31379;DHT22;61664;48.112;11.662;2023-02-01T11:37:41;8.80;79.70
31379;DHT22;61664;48.112;11.662;2023-02-01T11:42:59;8.80;79.70
31379;DHT22;61664;48.112;11.662;2023-02-01T11:45:31;8.80;76.40
31379;DHT22;61664;48.112;11.662;2023-02-01T11:48:17;8.70;80.20
31379;DHT22;61664;48.112;11.662;2023-02-01T11:54:37;8.70;78.10
31379;DHT22;61664;48.112;11.662;2023-02-01T11:56:59;8.70;78.70
31379;DHT22;61664;48.112;11.662;2023-02-01T12:17:16;8.50;77.90
31379;DHT22;61664;48.112;11.662;2023-02-01T12:24:11;8.50;79.60
31379;DHT22;61664;48.112;11.662;2023-02-01T12:26:56;8.50;78.30
31379;DHT22;61664;48.112;11.662;2023-02-01T12:33:05;8.50;78.40
31379;DHT22;61664;48.112;11.662;2023-02-01T12:35:50;8.50;77.00
31379;DHT22;61664;48.112;11.662;2023-02-01T12:44:03;8.40;79.80
31379;DHT22;61664;48.112;11.662;2023-02-01T12:46:50;8.30;79.20
31379;DHT22;61664;48.112;11.662;2023-02-01T12:52:16;8.30;77.80
31379;DHT22;61664;48.112;11.662;2023-02-01T12:55:05;8.20;79.20
31379;DHT22;61664;48.112;11.662;2023-02-01T12:57:37;8.30;79.90
31379;DHT22;61664;48.112;11.662;2023-02-01T13:06:13;8.30;78.50
31379;DHT22;61664;48.112;11.662;2023-02-01T13:09:37;8.30;79.50
31379;DHT22;61664;48.112;11.662;2023-02-01T13:12:16;8.20;76.00
31379;DHT22;61664;48.112;11.662;2023-02-01T13:14:52;8.30;78.50
31379;DHT22;61664;48.112;11.662;2023-02-01T13:17:25;8.20;79.70
31379;DHT22;61664;48.112;11.662;2023-02-01T13:22:46;8.30;78.90
31379;DHT22;61664;48.112;11.662;2023-02-01T13:25:45;8.30;79.50
31379;DHT22;61664;48.112;11.662;2023-02-01T13:28:26;8.30;79.50
31379;DHT22;61664;48.112;11.662;2023-02-01T13:37:05;8.30;76.10
31379;DHT22;61664;48.112;11.662;2023-02-01T13:42:33;8.30;78.40
31379;DHT22;61664;48.112;11.662;2023-02-01T13:45:20;8.40;80.80
31379;DHT22;61664;48.112;11.662;2023-02-01T13:47:53;8.40;79.90
31379;DHT22;61664;48.112;11.662;2023-02-01T13:50:39;8.50;80.70
31379;DHT22;61664;48.112;11.662;2023-02-01T13:55:41;8.50;80.00
31379;DHT22;61664;48.112;11.662;2023-02-01T13:58:22;8.50;79.30
31379;DHT22;61664;48.112;11.662;2023-02-01T14:03:55;8.50;76.70
31379;DHT22;61664;48.112;11.662;2023-02-01T14:19:28;8.40;79.10
31379;DHT22;61664;48.112;11.662;2023-02-01T14:21:58;8.40;79.40
31379;DHT22;61664;48.112;11.662;2023-02-01T14:24:29;8.40;80.00
31379;DHT22;61664;48.112;11.662;2023-02-01T14:27:23;8.40;78.80
31379;DHT22;61664;48.112;11.662;2023-02-01T14:29:58;8.30;79.50
31379;DHT22;61664;48.112;11.662;2023-02-01T14:32:36;8.30;79.10
31379;DHT22;61664;48.112;11.662;2023-02-01T14:35:28;8.30;78.50
31379;DHT22;61664;48.112;11.662;2023-02-01T14:38:00;8.20;77.70
31379;DHT22;61664;48.112;11.662;2023-02-01T14:40:31;8.20;79.30
31379;DHT22;61664;48.112;11.662;2023-02-01T14:42:58;8.20;79.70
31379;DHT22;61664;48.112;11.662;2023-02-01T14:47:55;8.20;80.20
31379;DHT22;61664;48.112;11.662;2023-02-01T14:50:34;8.10;79.70
31379;DHT22;61664;48.112;11.662;2023-02-01T14:59:06;8.10;77.20
31379;DHT22;61664;48.112;11.662;2023-02-01T15:01:38;8.10;78.80
31379;DHT22;61664;48.112;11.662;2023-02-01T15:04:17;8.10;79.30
31379;DHT22;61664;48.112;11.662;2023-02-01T15:06:56;8.10;79.30
31379;DHT22;61664;48.112;11.662;2023-02-01T15:09:33;8.10;78.70
31379;DHT22;61664;48.112;11.662;2023-02-01T15:17:26;8.00;79.00
31379;DHT22;61664;48.112;11.662;2023-02-01T15:20:19;8.00;77.60
31379;DHT22;61664;48.112;11.662;2023-02-01T15:22:59;8.00;77.20
31379;DHT22;61664;48.112;11.662;2023-02-01T15:25:27;8.00;77.40
31379;DHT22;61664;48.112;11.662;2023-02-01T15:27:57;8.00;79.60
31379;DHT22;61664;48.112;11.662;2023-02-01T15:30:28;8.10;79.60
31379;DHT22;61664;48.112;11.662;2023-02-01T15:33:17;8.00;78.90
31379;DHT22;61664;48.112;11.662;2023-02-01T15:35:51;7.90;77.40
31379;DHT22;61664;48.112;11.662;2023-02-01T15:38:42;7.90;78.50
31379;DHT22;61664;48.112;11.662;2023-02-01T15:41:18;7.90;78.30
31379;DHT22;61664;48.112;11.662;2023-02-01T15:44:17;7.80;77.60
31379;DHT22;61664;48.112;11.662;2023-02-01T15:46:49;7.70;75.50
31379;DHT22;61664;48.112;11.662;2023-02-01T15:49:23;7.70;78.00
31379;DHT22;61664;48.112;11.662;2023-02-01T15:51:53;7.60;78.10
31379;DHT22;61664;48.112;11.662;2023-02-01T15:54:31;7.50;77.90
31379;DHT22;61664;48.112;11.662;2023-02-01T15:57:20;7.40;76.80
31379;DHT22;61664;48.112;11.662;2023-02-01T16:00:05;7.40;77.60
31379;DHT22;61664;48.112;11.662;2023-02-01T16:02:37;7.40;78.40
31379;DHT22;61664;48.112;11.662;2023-02-01T16:05:35;7.30;79.20
31379;DHT22;61664;48.112;11.662;2023-02-01T16:10:39;7.30;79.80
31379;DHT22;61664;48.112;11.662;2023-02-01T16:13:08;7.20;79.40
31379;DHT22;61664;48.112;11.662;2023-02-01T16:15:36;7.20;79.90
31379;DHT22;61664;48.112;11.662;2023-02-01T16:18:03;7.30;79.90
31379;DHT22;61664;48.112;11.662;2023-02-01T16:20:31;7.20;79.90
31379;DHT22;61664;48.112;11.662;2023-02-01T16:22:59;7.20;80.00
31379;DHT22;61664;48.112;11.662;2023-02-01T16:25:26;7.20;80.10
31379;DHT22;61664;48.112;11.662;2023-02-01T16:27:53;7.20;80.10
31379;DHT22;61664;48.112;11.662;2023-02-01T16:30:20;7.10;80.10
31379;DHT22;61664;48.112;11.662;2023-02-01T16:32:59;7.10;80.30
31379;DHT22;61664;48.112;11.662;2023-02-01T16:35:36;7.20;79.10
31379;DHT22;61664;48.112;11.662;2023-02-01T16:38:07;7.20;80.50
31379;DHT22;61664;48.112;11.662;2023-02-01T16:40:43;7.10;80.60
31379;DHT22;61664;48.112;11.662;2023-02-01T16:45:46;7.20;80.30
31379;DHT22;61664;48.112;11.662;2023-02-01T16:48:30;7.20;80.90
31379;DHT22;61664;48.112;11.662;2023-02-01T16:51:03;7.20;78.80
31379;DHT22;61664;48.112;11.662;2023-02-01T16:53:35;7.20;81.10
31379;DHT22;61664;48.112;11.662;2023-02-01T16:56:21;7.20;81.20
31379;DHT22;61664;48.112;11.662;2023-02-01T16:58:50;7.20;80.90
31379;DHT22;61664;48.112;11.662;2023-02-01T17:01:18;7.30;81.30
31379;DHT22;61664;48.112;11.662;2023-02-01T17:03:45;7.30;81.20
31379;DHT22;61664;48.112;11.662;2023-02-01T17:06:21;7.30;81.40
31379;DHT22;61664;48.112;11.662;2023-02-01T17:08:54;7.30;80.90
31379;DHT22;61664;48.112;11.662;2023-02-01T17:11:22;7.40;81.00
31379;DHT22;61664;48.112;11.662;2023-02-01T17:13:48;7.30;81.30
31379;DHT22;61664;48.112;11.662;2023-02-01T17:18:59;7.40;81.30
31379;DHT22;61664;48.112;11.662;2023-02-01T17:21:33;7.50;80.20
31379;DHT22;61664;48.112;11.662;2023-02-01T17:24:11;7.40;80.90
31379;DHT22;61664;48.112;11.662;2023-02-01T17:26:41;7.50;80.70
31379;DHT22;61664;48.112;11.662;2023-02-01T17:29:09;7.50;81.00
31379;DHT22;61664;48.112;11.662;2023-02-01T17:31:43;7.60;81.10
31379;DHT22;61664;48.112;11.662;2023-02-01T17:34:13;7.50;79.90
31379;DHT22;61664;48.112;11.662;2023-02-01T17:36:43;7.50;80.30
31379;DHT22;61664;48.112;11.662;2023-02-01T17:39:11;7.50;80.60
31379;DHT22;61664;48.112;11.662;2023-02-01T17:42:02;7.50;80.50
31379;DHT22;61664;48.112;11.662;2023-02-01T17:44:31;7.60;80.40
31379;DHT22;61664;48.112;11.662;2023-02-01T17:46:57;7.60;80.50
31379;DHT22;61664;48.112;11.662;2023-02-01T17:49:26;7.60;80.50
31379;DHT22;61664;48.112;11.662;2023-02-01T17:51:55;7.60;80.20
31379;DHT22;61664;48.112;11.662;2023-02-01T17:54:23;7.70;80.10
31379;DHT22;61664;48.112;11.662;2023-02-01T17:56:51;7.60;80.10
31379;DHT22;61664;48.112;11.662;2023-02-01T17:59:18;7.70;80.00
31379;DHT22;61664;48.112;11.662;2023-02-01T18:01:45;7.70;79.90
31379;DHT22;61664;48.112;11.662;2023-02-01T18:04:16;7.70;79.90
31379;DHT22;61664;48.112;11.662;2023-02-01T18:06:44;7.70;79.50
31379;DHT22;61664;48.112;11.662;2023-02-01T18:09:11;7.70;79.60
31379;DHT22;61664;48.112;11.662;2023-02-01T18:11:38;7.80;79.40
31379;DHT22;61664;48.112;11.662;2023-02-01T18:14:05;7.70;79.30
31379;DHT22;61664;48.112;11.662;2023-02-01T18:16:33;7.80;79.40
31379;DHT22;61664;48.112;11.662;2023-02-01T18:19:02;7.70;78.90
31379;DHT22;61664;48.112;11.662;2023-02-01T18:21:34;7.80;79.20
31379;DHT22;61664;48.112;11.662;2023-02-01T18:24:03;7.70;78.60
31379;DHT22;61664;48.112;11.662;2023-02-01T18:26:30;7.80;78.90
31379;DHT22;61664;48.112;11.662;2023-02-01T18:28:57;7.70;78.80
31379;DHT22;61664;48.112;11.662;2023-02-01T18:31:26;7.80;78.80
31379;DHT22;61664;48.112;11.662;2023-02-01T18:33:57;7.70;78.70
31379;DHT22;61664;48.112;11.662;2023-02-01T18:36:26;7.80;78.80
31379;DHT22;61664;48.112;11.662;2023-02-01T18:38:54;7.80;78.60
31379;DHT22;61664;48.112;11.662;2023-02-01T18:41:23;7.80;78.90
31379;DHT22;61664;48.112;11.662;2023-02-01T18:43:51;7.80;78.80
31379;DHT22;61664;48.112;11.662;2023-02-01T18:46:18;7.80;78.60